createdAt,value
2019-05-18T00:01:10.325Z,78
2019-05-18T00:06:20.343Z,79
2019-05-18T00:11:25.263Z,80
2019-05-18T00:16:30.357Z,79
2019-05-18T00:21:35.216Z,78
2019-05-18T00:26:40.216Z,78
2019-05-18T00:31:50.538Z,80
2019-05-18T00:37:00.276Z,80
2019-05-18T00:42:05.192Z,81
2019-05-18T00:47:10.215Z,82
2019-05-18T00:52:15.211Z,82
2019-05-18T00:57:20.262Z,82
2019-05-18T01:02:30.301Z,83
2019-05-18T01:07:40.257Z,84
2019-05-18T01:12:45.209Z,84
2019-05-18T01:18:01.491Z,85
2019-05-18T01:19:03.548Z,85
2019-05-18T01:22:55.255Z,85
2019-05-18T01:28:00.255Z,85
2019-05-18T01:33:05.219Z,85
2019-05-18T01:38:15.181Z,85
2019-05-18T01:43:25.247Z,85
2019-05-18T01:48:30.205Z,85
2019-05-18T01:58:30.397Z,87
2019-05-18T02:08:30.718Z,87
2019-05-18T02:13:35.701Z,87
2019-05-18T02:18:40.816Z,87
2019-05-18T02:23:50.790Z,88
2019-05-18T02:29:00.677Z,88
2019-05-18T02:34:06.099Z,88
2019-05-18T02:39:10.693Z,88
2019-05-18T02:44:15.643Z,89
2019-05-18T02:49:20.691Z,90
2019-05-18T02:54:25.679Z,90
2019-05-18T02:59:30.653Z,90
2019-05-18T03:04:35.680Z,90
2019-05-18T03:09:40.682Z,90
2019-05-18T03:14:45.686Z,90
2019-05-18T03:19:50.618Z,90
2019-05-18T03:24:55.627Z,90
2019-05-18T03:30:00.649Z,90
2019-05-18T03:35:10.634Z,89
2019-05-18T03:40:20.628Z,90
2019-05-18T03:45:25.594Z,88
2019-05-18T03:50:30.681Z,88
2019-05-18T03:55:35.663Z,86
2019-05-18T04:00:40.624Z,85
2019-05-18T04:05:50.579Z,80
2019-05-18T04:11:00.713Z,76
2019-05-18T04:16:05.650Z,74
2019-05-18T04:21:10.604Z,75
2019-05-18T04:26:15.585Z,75
2019-05-18T04:31:20.588Z,75
2019-05-18T04:36:30.825Z,75
2019-05-18T04:41:40.657Z,74
2019-05-18T04:46:45.555Z,75
2019-05-18T04:51:50.578Z,73
2019-05-18T04:56:55.576Z,72
2019-05-18T05:02:00.626Z,72
2019-05-18T05:07:10.620Z,70
2019-05-18T05:12:20.591Z,72
2019-05-18T05:17:25.545Z,69
2019-05-18T05:27:25.686Z,65
2019-05-18T05:32:30.752Z,64
2019-05-18T05:37:35.750Z,66
2019-05-18T05:42:45.702Z,64
2019-05-18T05:47:55.684Z,64
2019-05-18T05:53:00.704Z,64
2019-05-18T05:58:05.624Z,63
2019-05-18T06:03:10.666Z,62
2019-05-18T06:08:15.710Z,61
2019-05-18T06:13:35.669Z,58
2019-05-18T06:18:50.658Z,59
2019-05-18T06:24:00.761Z,58
2019-05-18T06:34:05.835Z,55
2019-05-18T06:39:11.102Z,54
2019-05-18T06:49:11.062Z,48
2019-05-18T06:54:16.149Z,50
2019-05-18T06:59:21.159Z,47
2019-05-18T07:04:31.129Z,46
2019-05-18T07:09:41.128Z,45
2019-05-18T07:14:46.064Z,43
2019-05-18T07:19:51.113Z,46
2019-05-18T07:24:56.035Z,45
2019-05-18T07:40:01.387Z,46
2019-05-18T07:45:06.378Z,46
2019-05-18T07:50:11.368Z,45
2019-05-18T07:55:21.383Z,47
2019-05-18T08:00:31.334Z,47
2019-05-18T08:05:36.352Z,46
2019-05-18T08:10:44.004Z,47
2019-05-18T08:15:46.336Z,48
2019-05-18T08:20:51.275Z,47
2019-05-18T08:26:01.231Z,47
2019-05-18T08:31:11.316Z,46
2019-05-18T08:36:16.364Z,45
2019-05-18T08:41:21.258Z,47
2019-05-18T08:46:26.555Z,46
2019-05-18T08:51:31.391Z,46
2019-05-18T08:56:41.336Z,46
2019-05-18T09:01:51.370Z,47
2019-05-18T09:06:56.274Z,46
2019-05-18T09:12:01.313Z,45
2019-05-18T09:17:06.345Z,45
2019-05-18T09:23:23.636Z,44
2019-05-18T09:27:21.347Z,44
2019-05-18T09:32:31.378Z,44
2019-05-18T09:37:36.304Z,41
2019-05-18T09:42:41.286Z,43
2019-05-18T09:47:46.239Z,41
2019-05-18T09:52:51.303Z,42
2019-05-18T09:58:01.275Z,41
2019-05-18T10:03:11.280Z,39
2019-05-18T10:08:16.305Z,42
2019-05-18T10:13:21.333Z,40
2019-05-18T10:18:26.267Z,39
2019-05-18T10:23:31.343Z,39
2019-05-18T10:28:41.220Z,41
2019-05-18T10:38:46.564Z,38
2019-05-18T10:43:51.365Z,39
2019-05-18T10:48:56.420Z,38
2019-05-18T10:54:06.357Z,38
2019-05-18T10:59:16.328Z,37
2019-05-18T11:04:21.369Z,37
2019-05-18T11:09:26.380Z,38
2019-05-18T11:14:31.452Z,38
2019-05-18T11:19:36.398Z,38
2019-05-18T11:24:46.419Z,38
2019-05-18T11:29:56.379Z,38
2019-05-18T11:35:01.314Z,36
2019-05-18T11:40:06.405Z,34
2019-05-18T11:45:11.625Z,34
2019-05-18T11:50:16.405Z,33
2019-05-18T11:55:26.391Z,34
2019-05-18T12:00:36.418Z,34
2019-05-18T12:05:41.313Z,33
2019-05-18T12:10:46.346Z,34
2019-05-18T12:15:51.347Z,32
2019-05-18T12:20:56.376Z,33
2019-05-18T12:26:01.311Z,31
2019-05-18T12:36:01.591Z,34
2019-05-18T12:41:06.911Z,33
2019-05-18T12:46:11.644Z,32
2019-05-18T12:51:21.728Z,33
2019-05-18T12:56:31.633Z,32
2019-05-18T13:01:36.643Z,31
2019-05-18T13:06:41.695Z,30
2019-05-18T13:11:46.656Z,30
2019-05-18T13:16:51.601Z,29
2019-05-18T13:22:01.748Z,30
2019-05-18T13:27:11.631Z,30
2019-05-18T13:32:16.651Z,29
2019-05-18T13:37:21.707Z,30
2019-05-18T13:42:26.656Z,30
2019-05-18T13:47:31.579Z,29
2019-05-18T13:52:41.603Z,29
2019-05-18T13:57:51.705Z,30
2019-05-18T14:02:56.639Z,30
2019-05-18T14:08:01.624Z,30
2019-05-18T14:13:06.651Z,29
2019-05-18T14:18:11.588Z,31
2019-05-18T14:23:21.673Z,32
2019-05-18T14:28:31.593Z,31
2019-05-18T14:33:37.007Z,30
2019-05-18T14:38:42.038Z,31
2019-05-18T14:43:46.605Z,31
2019-05-18T14:48:51.615Z,31
2019-05-18T14:53:56.629Z,30
2019-05-18T14:59:01.537Z,30
2019-05-18T15:04:06.594Z,30
2019-05-18T15:09:11.538Z,31
2019-05-18T15:14:16.689Z,30
2019-05-18T15:19:21.591Z,31
2019-05-18T15:24:26.693Z,31
2019-05-18T15:29:31.570Z,31
2019-05-18T15:34:41.606Z,32
2019-05-18T15:39:51.656Z,30
2019-05-18T15:44:56.604Z,31
2019-05-18T15:50:01.611Z,31
2019-05-18T15:55:06.591Z,31
2019-05-18T16:05:06.678Z,30
2019-05-18T16:10:11.836Z,30
2019-05-18T16:15:16.727Z,31
2019-05-18T16:20:26.778Z,31
2019-05-18T16:30:32.043Z,30
2019-05-18T16:40:32.453Z,31
2019-05-18T16:45:37.358Z,34
2019-05-18T16:50:42.319Z,32
2019-05-18T16:55:52.317Z,34
2019-05-18T17:01:02.290Z,32
2019-05-18T17:06:07.294Z,32
2019-05-18T17:11:12.380Z,33
2019-05-18T17:16:17.301Z,34
2019-05-18T17:21:22.303Z,34
2019-05-18T17:26:32.277Z,33
2019-05-18T17:31:42.272Z,34
2019-05-18T17:36:47.236Z,34
2019-05-18T17:41:52.299Z,35
2019-05-18T17:46:57.323Z,35
2019-05-18T17:52:02.274Z,35
2019-05-18T17:57:09.459Z,33
2019-05-18T18:02:12.216Z,34
2019-05-18T18:07:17.319Z,35
2019-05-18T18:12:22.346Z,35
2019-05-18T18:17:27.215Z,35
2019-05-18T18:22:32.266Z,35
2019-05-18T18:27:37.277Z,36
2019-05-18T18:32:42.277Z,37
2019-05-18T18:37:52.309Z,37
2019-05-18T18:43:02.239Z,38
2019-05-18T18:48:07.493Z,38
2019-05-18T18:53:12.277Z,38
2019-05-18T18:58:17.352Z,38
2019-05-18T19:03:22.269Z,39
2019-05-18T19:08:32.276Z,38
2019-05-18T19:13:46.085Z,38
2019-05-18T19:18:47.388Z,38
2019-05-18T19:23:52.321Z,40
2019-05-18T19:28:57.237Z,39
2019-05-18T19:34:02.233Z,40
2019-05-18T19:39:12.279Z,40
2019-05-18T19:44:24.269Z,40
2019-05-18T19:49:27.599Z,40
2019-05-18T19:54:32.252Z,42
2019-05-18T19:59:37.249Z,42
2019-05-18T20:09:38.142Z,43
2019-05-18T20:14:43.145Z,44
2019-05-18T20:19:48.137Z,43
2019-05-18T20:24:58.096Z,44
2019-05-18T20:30:08.264Z,45
2019-05-18T20:35:13.096Z,45
2019-05-18T20:40:18.188Z,45
2019-05-18T20:45:23.168Z,46
2019-05-18T20:50:28.178Z,44
2019-05-18T20:55:38.100Z,46
2019-05-18T21:00:48.122Z,45
2019-05-18T21:05:53.152Z,46
2019-05-18T21:10:58.144Z,46
2019-05-18T21:16:03.124Z,47
2019-05-18T21:21:08.050Z,50
2019-05-18T21:26:18.093Z,49
2019-05-18T21:31:28.087Z,49
2019-05-18T21:36:33.114Z,48
2019-05-18T21:41:38.069Z,48
2019-05-18T21:46:43.121Z,47
2019-05-18T21:51:48.325Z,48
2019-05-18T21:56:58.088Z,50
2019-05-18T22:02:08.298Z,52
2019-05-18T22:07:13.101Z,53
2019-05-18T22:12:18.124Z,52
2019-05-18T22:17:23.145Z,53
2019-05-18T22:22:28.132Z,52
2019-05-18T22:27:38.133Z,53
2019-05-18T22:32:48.083Z,51
2019-05-18T22:37:53.364Z,51
2019-05-18T22:42:58.141Z,53
2019-05-18T22:48:03.204Z,53
2019-05-18T22:58:03.252Z,53
2019-05-18T23:03:08.287Z,54
2019-05-18T23:08:13.293Z,55
2019-05-18T23:13:23.266Z,56
2019-05-18T23:18:33.224Z,56
2019-05-18T23:23:38.341Z,55
2019-05-18T23:28:43.241Z,55
2019-05-18T23:33:48.247Z,55
2019-05-18T23:38:53.264Z,55
2019-05-18T23:44:03.229Z,55
2019-05-18T23:49:13.250Z,55
2019-05-18T23:54:18.252Z,54
2019-05-18T23:59:23.449Z,53
